createdAt,value
2023-04-27T00:01:41.609Z,1018.48
2023-04-27T00:03:41.917Z,1018.50
2023-04-27T00:05:41.605Z,1018.50
2023-04-27T00:07:41.638Z,1018.44
2023-04-27T00:09:41.596Z,1018.43
2023-04-27T00:11:41.951Z,1018.43
2023-04-27T00:13:41.917Z,1018.43
2023-04-27T00:15:41.566Z,1018.39
2023-04-27T00:17:43.520Z,1018.42
2023-04-27T00:19:41.702Z,1018.34
2023-04-27T00:21:41.625Z,1018.33
2023-04-27T00:23:41.575Z,1018.33
2023-04-27T00:25:41.702Z,1018.30
2023-04-27T00:27:41.726Z,1018.28
2023-04-27T00:29:41.659Z,1018.26
2023-04-27T00:31:41.746Z,1018.24
2023-04-27T00:33:41.614Z,1018.24
2023-04-27T00:35:41.598Z,1018.18
2023-04-27T00:37:41.681Z,1018.20
2023-04-27T00:39:41.718Z,1018.20
2023-04-27T00:41:41.641Z,1018.19
2023-04-27T00:43:41.730Z,1018.19
2023-04-27T00:45:41.635Z,1018.15
2023-04-27T00:47:41.674Z,1018.14
2023-04-27T00:49:41.639Z,1018.11
2023-04-27T00:51:41.633Z,1018.11
2023-04-27T00:53:44.772Z,1018.11
2023-04-27T00:55:41.820Z,1018.13
2023-04-27T00:57:41.842Z,1018.15
2023-04-27T00:59:41.817Z,1018.14
2023-04-27T01:01:41.873Z,1018.14
2023-04-27T01:03:41.802Z,1018.13
2023-04-27T01:09:41.632Z,1018.12
2023-04-27T01:13:41.877Z,1018.16
2023-04-27T01:17:41.782Z,1018.14
2023-04-27T01:19:41.599Z,1018.14
2023-04-27T01:23:58.185Z,1018.15
2023-04-27T01:25:55.184Z,1018.13
2023-04-27T01:27:55.329Z,1018.14
2023-04-27T01:29:55.193Z,1018.14
2023-04-27T01:31:55.239Z,1018.18
2023-04-27T01:33:55.249Z,1018.18
2023-04-27T01:35:55.423Z,1018.17
2023-04-27T01:37:55.193Z,1018.18
2023-04-27T01:39:59.327Z,1018.18
2023-04-27T01:41:57.768Z,1018.16
2023-04-27T01:43:55.445Z,1018.14
2023-04-27T01:45:55.330Z,1018.16
2023-04-27T01:47:55.288Z,1018.16
2023-04-27T01:49:55.229Z,1018.14
2023-04-27T01:51:55.479Z,1018.18
2023-04-27T01:53:55.307Z,1018.14
2023-04-27T01:55:55.334Z,1018.15
2023-04-27T01:57:55.319Z,1018.15
2023-04-27T01:59:55.269Z,1018.15
2023-04-27T02:01:55.362Z,1018.16
2023-04-27T02:03:55.427Z,1018.17
2023-04-27T02:05:55.282Z,1018.19
2023-04-27T02:07:55.321Z,1018.19
2023-04-27T02:09:55.254Z,1018.16
2023-04-27T02:11:55.269Z,1018.16
2023-04-27T02:13:55.383Z,1018.16
2023-04-27T02:15:55.330Z,1018.16
2023-04-27T02:17:55.307Z,1018.19
2023-04-27T02:19:55.251Z,1018.19
2023-04-27T02:21:55.279Z,1018.22
2023-04-27T02:23:55.423Z,1018.24
2023-04-27T02:25:58.307Z,1018.24
2023-04-27T02:27:55.294Z,1018.27
2023-04-27T02:29:55.326Z,1018.28
2023-04-27T02:31:55.316Z,1018.29
2023-04-27T02:33:55.510Z,1018.31
2023-04-27T02:35:55.254Z,1018.31
2023-04-27T02:37:55.255Z,1018.29
2023-04-27T02:39:55.286Z,1018.29
2023-04-27T02:41:55.605Z,1018.25
2023-04-27T02:43:55.305Z,1018.25
2023-04-27T02:45:55.244Z,1018.24
2023-04-27T02:47:55.344Z,1018.23
2023-04-27T02:49:55.223Z,1018.24
2023-04-27T02:51:55.293Z,1018.26
2023-04-27T02:53:55.310Z,1018.26
2023-04-27T02:55:55.302Z,1018.26
2023-04-27T02:57:55.316Z,1018.32
2023-04-27T02:59:55.312Z,1018.35
2023-04-27T03:01:55.269Z,1018.34
2023-04-27T03:03:55.524Z,1018.34
2023-04-27T03:05:55.403Z,1018.33
2023-04-27T03:07:55.312Z,1018.30
2023-04-27T03:09:55.274Z,1018.32
2023-04-27T03:11:55.311Z,1018.33
2023-04-27T03:13:55.400Z,1018.33
2023-04-27T03:15:55.295Z,1018.32
2023-04-27T03:17:55.505Z,1018.41
2023-04-27T03:19:55.236Z,1018.44
2023-04-27T03:21:55.254Z,1018.44
2023-04-27T03:23:55.308Z,1018.43
2023-04-27T03:25:55.284Z,1018.44
2023-04-27T03:27:58.372Z,1018.45
2023-04-27T03:29:55.412Z,1018.47
2023-04-27T03:32:55.337Z,1018.40
2023-04-27T03:34:56.394Z,1018.40
2023-04-27T03:36:55.270Z,1018.40
2023-04-27T03:38:55.290Z,1018.46
2023-04-27T03:40:55.288Z,1018.51
2023-04-27T03:42:56.042Z,1018.54
2023-04-27T03:44:55.341Z,1018.54
2023-04-27T03:46:55.303Z,1018.53
2023-04-27T03:48:55.261Z,1018.50
2023-04-27T03:50:55.452Z,1018.58
2023-04-27T03:52:55.255Z,1018.53
2023-04-27T03:54:58.086Z,1018.53
2023-04-27T03:56:57.474Z,1018.58
2023-04-27T03:59:00.155Z,1018.55
2023-04-27T04:00:56.157Z,1018.54
2023-04-27T04:02:56.052Z,1018.50
2023-04-27T04:04:56.982Z,1018.50
2023-04-27T04:06:55.327Z,1018.43
2023-04-27T04:08:55.296Z,1018.45
2023-04-27T04:10:55.370Z,1018.46
2023-04-27T04:12:55.321Z,1018.47
2023-04-27T04:14:55.277Z,1018.47
2023-04-27T04:16:55.329Z,1018.47
2023-04-27T04:18:55.346Z,1018.58
2023-04-27T04:20:55.371Z,1018.60
2023-04-27T04:22:55.504Z,1018.60
2023-04-27T04:24:55.503Z,1018.69
2023-04-27T04:26:55.757Z,1018.70
2023-04-27T04:28:55.361Z,1018.71
2023-04-27T04:30:58.191Z,1018.70
2023-04-27T04:32:55.563Z,1018.70
2023-04-27T04:34:55.339Z,1018.60
2023-04-27T04:36:55.921Z,1018.60
2023-04-27T04:38:55.445Z,1018.55
2023-04-27T04:40:55.294Z,1018.56
2023-04-27T04:42:55.667Z,1018.56
2023-04-27T04:44:55.408Z,1018.58
2023-04-27T04:46:55.603Z,1018.68
2023-04-27T04:48:57.219Z,1018.70
2023-04-27T04:50:55.376Z,1018.70
2023-04-27T04:52:55.423Z,1018.72
2023-04-27T04:54:55.523Z,1018.73
2023-04-27T04:56:55.390Z,1018.73
2023-04-27T04:58:55.494Z,1018.84
2023-04-27T05:01:00.291Z,1018.84
2023-04-27T05:02:55.557Z,1018.79
2023-04-27T05:04:55.423Z,1018.81
2023-04-27T05:06:55.347Z,1018.81
2023-04-27T05:08:55.399Z,1018.73
2023-04-27T05:10:55.326Z,1018.73
2023-04-27T05:12:55.456Z,1018.73
2023-04-27T05:14:55.396Z,1018.73
2023-04-27T05:16:55.409Z,1018.76
2023-04-27T05:18:55.428Z,1018.76
2023-04-27T05:20:55.532Z,1018.78
2023-04-27T05:22:55.569Z,1018.77
2023-04-27T05:24:55.489Z,1018.78
2023-04-27T05:26:55.393Z,1018.83
2023-04-27T05:28:55.720Z,1018.83
2023-04-27T05:30:55.457Z,1018.82
2023-04-27T05:32:55.451Z,1018.86
2023-04-27T05:34:55.669Z,1018.91
2023-04-27T05:36:55.560Z,1018.91
2023-04-27T05:38:58.215Z,1018.91
2023-04-27T05:40:55.611Z,1018.95
2023-04-27T05:42:55.561Z,1018.96
2023-04-27T05:44:55.468Z,1018.99
2023-04-27T05:46:55.388Z,1018.99
2023-04-27T05:48:55.387Z,1018.94
2023-04-27T05:50:55.568Z,1018.93
2023-04-27T05:52:55.365Z,1018.92
2023-04-27T05:54:58.249Z,1018.90
2023-04-27T05:56:55.530Z,1018.90
2023-04-27T05:58:59.948Z,1018.93
2023-04-27T06:00:55.380Z,1018.94
2023-04-27T06:02:58.553Z,1018.97
2023-04-27T06:04:55.463Z,1019.00
2023-04-27T06:06:55.413Z,1019.00
2023-04-27T06:08:55.449Z,1019.01
2023-04-27T06:10:55.407Z,1019.01
2023-04-27T06:12:55.389Z,1019.02
2023-04-27T06:14:55.388Z,1019.04
2023-04-27T06:16:55.482Z,1019.04
2023-04-27T06:18:55.434Z,1019.04
2023-04-27T06:20:55.487Z,1019.09
2023-04-27T06:22:55.391Z,1019.12
2023-04-27T06:24:55.371Z,1019.12
2023-04-27T06:26:55.364Z,1019.20
2023-04-27T06:28:55.580Z,1019.22
2023-04-27T06:30:55.420Z,1019.27
2023-04-27T06:32:55.422Z,1019.25
2023-04-27T06:34:55.517Z,1019.25
2023-04-27T06:36:55.493Z,1019.27
2023-04-27T06:38:55.348Z,1019.28
2023-04-27T06:40:55.412Z,1019.24
2023-04-27T06:42:55.489Z,1019.31
2023-04-27T06:44:55.428Z,1019.31
2023-04-27T06:46:55.399Z,1019.28
2023-04-27T06:48:56.074Z,1019.30
2023-04-27T06:50:56.903Z,1019.28
2023-04-27T06:52:55.389Z,1019.28
2023-04-27T06:54:55.462Z,1019.29
2023-04-27T06:56:55.476Z,1019.26
2023-04-27T06:59:00.275Z,1019.26
2023-04-27T07:00:55.760Z,1019.30
2023-04-27T07:02:55.691Z,1019.30
2023-04-27T07:05:00.671Z,1019.28
2023-04-27T07:06:55.423Z,1019.32
2023-04-27T07:08:56.811Z,1019.30
2023-04-27T07:10:55.805Z,1019.34
2023-04-27T07:12:55.416Z,1019.34
2023-04-27T07:14:55.582Z,1019.34
2023-04-27T07:16:55.664Z,1019.33
2023-04-27T07:18:55.505Z,1019.30
2023-04-27T07:21:55.461Z,1019.27
2023-04-27T07:23:56.196Z,1019.34
2023-04-27T07:25:55.436Z,1019.34
2023-04-27T07:27:55.401Z,1019.37
2023-04-27T07:29:55.423Z,1019.37
2023-04-27T07:31:55.669Z,1019.39
2023-04-27T07:33:55.526Z,1019.37
2023-04-27T07:35:58.579Z,1019.37
2023-04-27T07:37:55.734Z,1019.28
2023-04-27T07:39:55.612Z,1019.28
2023-04-27T07:43:55.533Z,1019.28
2023-04-27T07:45:07.497Z,1019.28
2023-04-27T07:47:07.670Z,1019.32
2023-04-27T07:49:07.541Z,1019.32
2023-04-27T07:51:07.511Z,1019.33
2023-04-27T07:53:07.506Z,1019.28
2023-04-27T07:55:07.529Z,1019.25
2023-04-27T07:57:07.551Z,1019.22
2023-04-27T07:59:07.614Z,1019.22
2023-04-27T08:01:07.544Z,1019.24
2023-04-27T08:03:07.985Z,1019.28
2023-04-27T08:05:07.925Z,1019.24
2023-04-27T08:08:07.795Z,1019.28
2023-04-27T08:10:07.511Z,1019.32
2023-04-27T08:12:07.484Z,1019.31
2023-04-27T08:14:07.568Z,1019.31
2023-04-27T08:15:10.416Z,1019.29
2023-04-27T08:18:07.704Z,1019.30
2023-04-27T08:20:07.644Z,1019.30
2023-04-27T08:22:07.544Z,1019.30
2023-04-27T08:24:07.646Z,1019.32
2023-04-27T08:26:07.524Z,1019.34
2023-04-27T08:28:07.503Z,1019.34
2023-04-27T08:30:07.732Z,1019.33
2023-04-27T08:32:07.491Z,1019.33
2023-04-27T08:34:07.636Z,1019.34
2023-04-27T08:36:07.485Z,1019.33
2023-04-27T08:38:07.503Z,1019.36
2023-04-27T08:40:07.563Z,1019.34
2023-04-27T08:42:07.712Z,1019.34
2023-04-27T08:44:07.695Z,1019.30
2023-04-27T08:46:07.962Z,1019.26
2023-04-27T08:48:07.739Z,1019.23
2023-04-27T08:50:10.308Z,1019.23
2023-04-27T08:52:07.528Z,1019.17
2023-04-27T08:54:07.744Z,1019.15
2023-04-27T08:56:07.555Z,1019.18
2023-04-27T08:58:07.512Z,1019.17
2023-04-27T09:00:07.694Z,1019.17
2023-04-27T09:02:07.686Z,1019.17
2023-04-27T09:04:07.889Z,1019.14
2023-04-27T09:06:09.998Z,1019.15
2023-04-27T09:08:10.802Z,1019.10
2023-04-27T09:10:07.621Z,1019.10
2023-04-27T09:12:07.746Z,1019.13
2023-04-27T09:14:07.581Z,1019.13
2023-04-27T09:16:07.686Z,1019.11
2023-04-27T09:18:07.581Z,1019.08
2023-04-27T09:20:07.775Z,1019.08
2023-04-27T09:22:09.879Z,1019.10
2023-04-27T09:24:07.562Z,1019.10
2023-04-27T09:26:07.545Z,1019.06
2023-04-27T09:28:07.588Z,1019.06
2023-04-27T09:30:07.581Z,1019.08
2023-04-27T09:32:07.866Z,1019.05
2023-04-27T09:34:07.630Z,1019.08
2023-04-27T09:36:07.756Z,1019.06
2023-04-27T09:38:08.665Z,1019.06
2023-04-27T09:40:07.629Z,1019.01
2023-04-27T09:42:07.617Z,1019.01
2023-04-27T09:44:09.055Z,1018.98
2023-04-27T09:46:11.731Z,1019.01
2023-04-27T09:48:07.571Z,1019.01
2023-04-27T09:50:13.415Z,1019.01
2023-04-27T09:52:10.093Z,1019.00
2023-04-27T09:54:07.850Z,1018.99
2023-04-27T09:56:07.654Z,1018.99
2023-04-27T09:58:08.016Z,1018.93
2023-04-27T10:00:07.655Z,1018.88
2023-04-27T10:02:23.536Z,1018.98
2023-04-27T10:04:07.789Z,1018.97
2023-04-27T10:06:07.657Z,1018.97
2023-04-27T10:08:07.769Z,1019.00
2023-04-27T10:10:10.727Z,1019.01
2023-04-27T10:12:07.564Z,1019.00
2023-04-27T10:14:07.667Z,1018.98
2023-04-27T10:16:07.711Z,1018.98
2023-04-27T10:18:08.030Z,1019.00
2023-04-27T10:20:07.787Z,1018.98
2023-04-27T10:22:07.717Z,1018.98
2023-04-27T10:24:07.685Z,1018.98
2023-04-27T10:26:07.793Z,1018.92
2023-04-27T10:28:07.690Z,1018.88
2023-04-27T10:30:07.741Z,1018.89
2023-04-27T10:32:07.631Z,1018.89
2023-04-27T10:34:07.738Z,1018.89
2023-04-27T10:36:10.849Z,1018.87
2023-04-27T10:38:07.596Z,1018.83
2023-04-27T10:40:07.675Z,1018.92
2023-04-27T10:42:07.608Z,1018.92
2023-04-27T10:44:07.604Z,1018.92
2023-04-27T10:46:07.827Z,1018.95
2023-04-27T10:48:07.782Z,1018.94
2023-04-27T10:50:07.720Z,1018.92
2023-04-27T10:52:07.751Z,1018.92
2023-04-27T10:54:07.740Z,1018.91
2023-04-27T10:56:07.649Z,1018.84
2023-04-27T10:58:07.678Z,1018.85
2023-04-27T11:00:07.647Z,1018.81
2023-04-27T11:02:07.781Z,1018.81
2023-04-27T11:04:07.669Z,1018.81
2023-04-27T11:06:07.647Z,1018.85
2023-04-27T11:08:07.751Z,1018.86
2023-04-27T11:10:07.936Z,1018.86
2023-04-27T11:12:10.736Z,1018.86
2023-04-27T11:14:07.943Z,1018.84
2023-04-27T11:16:07.766Z,1018.83
2023-04-27T11:18:07.720Z,1018.80
2023-04-27T11:20:07.696Z,1018.80
2023-04-27T11:22:07.704Z,1018.80
2023-04-27T11:24:07.989Z,1018.81
2023-04-27T11:26:07.704Z,1018.83
2023-04-27T11:28:07.714Z,1018.87
2023-04-27T11:30:07.789Z,1018.87
2023-04-27T11:32:07.702Z,1018.86
2023-04-27T11:34:07.981Z,1018.84
2023-04-27T11:36:07.703Z,1018.82
2023-04-27T11:38:07.737Z,1018.83
2023-04-27T11:40:07.813Z,1018.83
2023-04-27T11:42:08.042Z,1018.79
2023-04-27T11:44:07.775Z,1018.79
2023-04-27T11:46:08.265Z,1018.72
2023-04-27T11:48:12.382Z,1018.78
2023-04-27T11:50:07.788Z,1018.78
2023-04-27T11:52:08.070Z,1018.78
2023-04-27T11:54:07.773Z,1018.75
2023-04-27T11:56:07.801Z,1018.75
2023-04-27T11:58:07.673Z,1018.75
2023-04-27T12:00:07.880Z,1018.71
2023-04-27T12:02:07.874Z,1018.71
2023-04-27T12:04:08.018Z,1018.73
2023-04-27T12:06:27.807Z,1018.74
2023-04-27T12:09:07.933Z,1018.73
2023-04-27T12:11:07.837Z,1018.73
2023-04-27T12:13:07.774Z,1018.73
2023-04-27T12:14:10.928Z,1018.81
2023-04-27T12:17:07.838Z,1018.76
2023-04-27T12:19:07.691Z,1018.77
2023-04-27T12:21:08.431Z,1018.69
2023-04-27T12:23:07.901Z,1018.69
2023-04-27T12:25:07.755Z,1018.69
2023-04-27T12:27:07.948Z,1018.72
2023-04-27T12:29:07.819Z,1018.67
2023-04-27T12:31:07.770Z,1018.67
2023-04-27T12:33:07.836Z,1018.69
2023-04-27T12:35:07.823Z,1018.72
2023-04-27T12:37:07.869Z,1018.71
2023-04-27T12:39:07.831Z,1018.70
2023-04-27T12:41:07.848Z,1018.70
2023-04-27T12:43:07.887Z,1018.68
2023-04-27T12:45:11.982Z,1018.67
2023-04-27T12:47:07.863Z,1018.63
2023-04-27T12:49:07.788Z,1018.64
2023-04-27T12:51:07.698Z,1018.64
2023-04-27T12:53:07.887Z,1018.58
2023-04-27T12:55:11.041Z,1018.62
2023-04-27T12:57:07.892Z,1018.61
2023-04-27T12:59:07.773Z,1018.61
2023-04-27T13:01:07.928Z,1018.60
2023-04-27T13:03:07.808Z,1018.59
2023-04-27T13:05:07.903Z,1018.59
2023-04-27T13:07:07.975Z,1018.53
2023-04-27T13:09:07.760Z,1018.53
2023-04-27T13:11:07.811Z,1018.47
2023-04-27T13:13:07.769Z,1018.47
2023-04-27T13:15:18.046Z,1018.43
2023-04-27T13:17:07.962Z,1018.39
2023-04-27T13:19:07.783Z,1018.39
2023-04-27T13:21:07.832Z,1018.40
2023-04-27T13:23:07.885Z,1018.37
2023-04-27T13:25:13.776Z,1018.33
2023-04-27T13:27:07.894Z,1018.33
2023-04-27T13:29:07.816Z,1018.28
2023-04-27T13:31:07.842Z,1018.25
2023-04-27T13:33:21.660Z,1018.18
2023-04-27T13:37:07.817Z,1018.13
2023-04-27T13:39:08.049Z,1018.20
2023-04-27T13:43:18.550Z,1018.20
2023-04-27T13:45:21.532Z,1018.20
2023-04-27T13:47:18.489Z,1018.20
2023-04-27T13:49:18.716Z,1018.16
2023-04-27T13:51:18.473Z,1018.18
2023-04-27T13:53:18.855Z,1018.17
2023-04-27T13:55:18.502Z,1018.17
2023-04-27T13:57:18.506Z,1018.18
2023-04-27T13:59:18.491Z,1018.14
2023-04-27T14:01:18.443Z,1018.10
2023-04-27T14:03:18.524Z,1018.12
2023-04-27T14:05:18.529Z,1018.12
2023-04-27T14:07:18.583Z,1018.12
2023-04-27T14:09:18.567Z,1018.11
2023-04-27T14:11:18.529Z,1018.05
2023-04-27T14:13:18.478Z,1018.07
2023-04-27T14:15:21.721Z,1018.07
2023-04-27T14:17:18.448Z,1018.09
2023-04-27T14:19:18.403Z,1018.12
2023-04-27T14:21:18.430Z,1018.11
2023-04-27T14:23:18.509Z,1018.08
2023-04-27T14:25:18.536Z,1018.08
2023-04-27T14:27:18.429Z,1018.08
2023-04-27T14:29:18.677Z,1018.05
2023-04-27T14:31:18.460Z,1018.06
2023-04-27T14:33:20.969Z,1018.06
2023-04-27T14:35:18.636Z,1018.02
2023-04-27T14:37:18.556Z,1017.99
2023-04-27T14:39:18.707Z,1018.01
2023-04-27T14:41:18.492Z,1018.01
2023-04-27T14:43:18.621Z,1018.01
2023-04-27T14:45:18.499Z,1018.01
2023-04-27T14:47:21.985Z,1018.03
2023-04-27T14:49:18.495Z,1018.09
2023-04-27T14:51:18.502Z,1018.10
2023-04-27T14:53:18.493Z,1018.10
2023-04-27T14:55:21.350Z,1018.12
2023-04-27T14:57:18.492Z,1018.08
2023-04-27T14:59:18.504Z,1018.10
2023-04-27T15:01:18.583Z,1018.10
2023-04-27T15:03:18.800Z,1018.12
2023-04-27T15:05:18.841Z,1018.10
2023-04-27T15:07:21.525Z,1018.10
2023-04-27T15:09:20.657Z,1018.20
2023-04-27T15:11:18.700Z,1018.20
2023-04-27T15:13:21.265Z,1018.19
2023-04-27T15:15:20.130Z,1018.19
2023-04-27T15:17:19.136Z,1018.18
2023-04-27T15:19:18.510Z,1018.16
2023-04-27T15:21:18.466Z,1018.16
2023-04-27T15:23:18.577Z,1018.09
2023-04-27T15:25:21.341Z,1018.11
2023-04-27T15:27:18.745Z,1018.07
2023-04-27T15:29:18.900Z,1018.07
2023-04-27T15:31:19.051Z,1018.12
2023-04-27T15:35:24.498Z,1018.08
2023-04-27T15:37:18.478Z,1018.07
2023-04-27T15:39:18.725Z,1018.07
2023-04-27T15:41:18.632Z,1018.07
2023-04-27T15:43:18.599Z,1018.07
2023-04-27T15:45:18.714Z,1018.05
2023-04-27T15:47:18.499Z,1018.05
2023-04-27T15:49:18.673Z,1018.05
2023-04-27T15:51:23.459Z,1018.09
2023-04-27T15:53:18.502Z,1018.03
2023-04-27T15:55:21.282Z,1017.96
2023-04-27T15:57:18.617Z,1017.96
2023-04-27T15:59:18.568Z,1017.86
2023-04-27T16:01:21.106Z,1017.86
2023-04-27T16:03:18.898Z,1017.85
2023-04-27T16:05:18.877Z,1017.85
2023-04-27T16:07:18.813Z,1017.85
2023-04-27T16:09:18.610Z,1017.81
2023-04-27T16:11:18.640Z,1017.80
2023-04-27T16:13:18.533Z,1017.77
2023-04-27T16:15:21.668Z,1017.73
2023-04-27T16:17:18.637Z,1017.73
2023-04-27T16:19:18.591Z,1017.76
2023-04-27T16:21:19.004Z,1017.74
2023-04-27T16:23:18.478Z,1017.71
2023-04-27T16:25:18.516Z,1017.75
2023-04-27T16:27:18.652Z,1017.75
2023-04-27T16:29:19.776Z,1017.75
2023-04-27T16:31:18.766Z,1017.65
2023-04-27T16:33:18.620Z,1017.59
2023-04-27T16:35:18.741Z,1017.59
2023-04-27T16:37:18.728Z,1017.58
2023-04-27T16:39:18.561Z,1017.55
2023-04-27T16:41:18.826Z,1017.51
2023-04-27T16:43:19.280Z,1017.50
2023-04-27T16:46:19.109Z,1017.51
2023-04-27T16:48:18.665Z,1017.52
2023-04-27T16:50:18.833Z,1017.52
2023-04-27T16:52:18.538Z,1017.57
2023-04-27T16:53:23.732Z,1017.60
2023-04-27T16:56:18.725Z,1017.63
2023-04-27T16:58:18.698Z,1017.63
2023-04-27T17:00:18.611Z,1017.64
2023-04-27T17:02:24.378Z,1017.64
2023-04-27T17:04:18.786Z,1017.60
2023-04-27T17:06:18.836Z,1017.58
2023-04-27T17:08:18.536Z,1017.58
2023-04-27T17:10:18.969Z,1017.58
2023-04-27T17:12:18.812Z,1017.58
2023-04-27T17:14:18.572Z,1017.57
2023-04-27T17:16:18.688Z,1017.60
2023-04-27T17:18:18.697Z,1017.60
2023-04-27T17:20:18.555Z,1017.56
2023-04-27T17:22:18.663Z,1017.58
2023-04-27T17:24:18.932Z,1017.57
2023-04-27T17:26:22.737Z,1017.56
2023-04-27T17:28:18.610Z,1017.56
2023-04-27T17:30:18.703Z,1017.50
2023-04-27T17:32:18.637Z,1017.44
2023-04-27T17:34:18.590Z,1017.46
2023-04-27T17:36:18.694Z,1017.46
2023-04-27T17:38:18.638Z,1017.47
2023-04-27T17:40:18.754Z,1017.51
2023-04-27T17:42:18.597Z,1017.56
2023-04-27T17:44:18.751Z,1017.59
2023-04-27T17:46:18.714Z,1017.59
2023-04-27T17:48:18.696Z,1017.65
2023-04-27T17:50:18.655Z,1017.65
2023-04-27T17:52:18.722Z,1017.67
2023-04-27T17:54:18.828Z,1017.65
2023-04-27T17:56:18.653Z,1017.65
2023-04-27T17:58:21.836Z,1017.60
2023-04-27T18:00:18.663Z,1017.57
2023-04-27T18:02:22.295Z,1017.57
2023-04-27T18:04:18.916Z,1017.57
2023-04-27T18:06:18.827Z,1017.57
2023-04-27T18:08:18.659Z,1017.56
2023-04-27T18:10:20.922Z,1017.53
2023-04-27T18:12:18.888Z,1017.55
2023-04-27T18:14:18.590Z,1017.55
2023-04-27T18:16:18.750Z,1017.53
2023-04-27T18:18:18.658Z,1017.57
2023-04-27T18:20:18.639Z,1017.59
2023-04-27T18:22:18.765Z,1017.57
2023-04-27T18:24:18.736Z,1017.57
2023-04-27T18:26:18.673Z,1017.61
2023-04-27T18:28:18.785Z,1017.60
2023-04-27T18:30:18.820Z,1017.60
2023-04-27T18:32:18.827Z,1017.60
2023-04-27T18:34:18.911Z,1017.67
2023-04-27T18:36:18.917Z,1017.67
2023-04-27T18:38:18.833Z,1017.63
2023-04-27T18:40:18.591Z,1017.69
2023-04-27T18:42:18.654Z,1017.69
2023-04-27T18:44:19.121Z,1017.76
2023-04-27T18:46:18.812Z,1017.78
2023-04-27T18:48:18.807Z,1017.85
2023-04-27T18:50:21.533Z,1017.82
2023-04-27T18:52:18.626Z,1017.82
2023-04-27T18:54:18.664Z,1017.78
2023-04-27T18:56:18.808Z,1017.83
2023-04-27T18:58:18.628Z,1017.83
2023-04-27T19:00:18.656Z,1017.83
2023-04-27T19:02:21.790Z,1017.86
2023-04-27T19:04:18.867Z,1017.86
2023-04-27T19:06:18.983Z,1017.92
2023-04-27T19:08:18.793Z,1017.92
2023-04-27T19:10:18.666Z,1017.92
2023-04-27T19:12:18.727Z,1017.92
2023-04-27T19:14:18.720Z,1017.97
2023-04-27T19:16:19.935Z,1017.96
2023-04-27T19:18:18.707Z,1017.96
2023-04-27T19:20:18.653Z,1017.96
2023-04-27T19:22:18.717Z,1017.94
2023-04-27T19:24:18.731Z,1017.92
2023-04-27T19:28:18.682Z,1017.83
2023-04-27T19:30:20.448Z,1017.83
2023-04-27T19:32:38.675Z,1017.85
2023-04-27T19:34:35.246Z,1017.83
2023-04-27T19:36:35.277Z,1017.90
2023-04-27T19:38:35.158Z,1017.94
2023-04-27T19:40:35.287Z,1017.94
2023-04-27T19:42:35.179Z,1017.94
2023-04-27T19:44:35.193Z,1017.90
2023-04-27T19:46:35.209Z,1017.93
2023-04-27T19:48:35.154Z,1017.93
2023-04-27T19:50:38.037Z,1017.93
2023-04-27T19:52:35.517Z,1017.93
2023-04-27T19:54:35.190Z,1017.95
2023-04-27T19:56:35.172Z,1017.97
2023-04-27T19:58:35.177Z,1017.97
2023-04-27T20:00:35.135Z,1017.97
2023-04-27T20:02:35.438Z,1018.00
2023-04-27T20:04:35.421Z,1018.02
2023-04-27T20:06:35.183Z,1017.98
2023-04-27T20:08:35.283Z,1017.96
2023-04-27T20:10:35.166Z,1017.96
2023-04-27T20:14:35.202Z,1017.87
2023-04-27T20:16:35.256Z,1017.82
2023-04-27T20:18:37.890Z,1017.74
2023-04-27T20:20:35.227Z,1017.74
2023-04-27T20:22:35.166Z,1017.66
2023-04-27T20:24:35.314Z,1017.65
2023-04-27T20:26:35.239Z,1017.62
2023-04-27T20:28:35.228Z,1017.71
2023-04-27T20:30:35.284Z,1017.71
2023-04-27T20:32:35.293Z,1017.71
2023-04-27T20:34:38.258Z,1017.75
2023-04-27T20:36:35.195Z,1017.74
2023-04-27T20:38:35.444Z,1017.74
2023-04-27T20:40:35.237Z,1017.73
2023-04-27T20:42:35.352Z,1017.74
2023-04-27T20:44:35.278Z,1017.75
2023-04-27T20:46:35.324Z,1017.69
2023-04-27T20:48:35.210Z,1017.69
2023-04-27T20:50:35.229Z,1017.69
2023-04-27T20:52:39.948Z,1017.70
2023-04-27T20:54:35.341Z,1017.62
2023-04-27T20:56:35.443Z,1017.57
2023-04-27T20:58:35.187Z,1017.57
2023-04-27T21:00:35.191Z,1017.55
2023-04-27T21:02:35.212Z,1017.54
2023-04-27T21:04:35.474Z,1017.57
2023-04-27T21:06:35.460Z,1017.57
2023-04-27T21:08:35.355Z,1017.54
2023-04-27T21:10:35.374Z,1017.57
2023-04-27T21:12:35.380Z,1017.57
2023-04-27T21:14:35.352Z,1017.58
2023-04-27T21:16:36.501Z,1017.58
2023-04-27T21:18:35.485Z,1017.51
2023-04-27T21:20:35.316Z,1017.49
2023-04-27T21:22:35.250Z,1017.44
2023-04-27T21:24:35.229Z,1017.41
2023-04-27T21:26:35.286Z,1017.41
2023-04-27T21:28:35.228Z,1017.34
2023-04-27T21:30:35.296Z,1017.29
2023-04-27T21:32:35.348Z,1017.30
2023-04-27T21:34:35.288Z,1017.30
2023-04-27T21:36:38.650Z,1017.34
2023-04-27T21:39:35.269Z,1017.32
2023-04-27T21:40:40.296Z,1017.24
2023-04-27T21:43:35.283Z,1017.16
2023-04-27T21:45:35.348Z,1017.12
2023-04-27T21:47:35.442Z,1017.13
2023-04-27T21:49:35.468Z,1017.13
2023-04-27T21:51:35.266Z,1017.12
2023-04-27T21:53:35.293Z,1017.12
2023-04-27T21:55:35.281Z,1017.12
2023-04-27T21:57:35.426Z,1017.10
2023-04-27T21:59:35.318Z,1017.10
2023-04-27T22:01:35.316Z,1017.01
2023-04-27T22:03:35.891Z,1016.99
2023-04-27T22:05:35.300Z,1016.98
2023-04-27T22:07:38.435Z,1016.98
2023-04-27T22:09:35.343Z,1016.97
2023-04-27T22:11:35.346Z,1016.95
2023-04-27T22:13:35.308Z,1016.94
2023-04-27T22:15:35.254Z,1016.92
2023-04-27T22:17:35.272Z,1016.92
2023-04-27T22:19:35.348Z,1016.93
2023-04-27T22:21:35.344Z,1016.95
2023-04-27T22:23:35.267Z,1016.99
2023-04-27T22:25:35.252Z,1016.97
2023-04-27T22:27:42.066Z,1016.97
2023-04-27T22:29:35.291Z,1016.97
2023-04-27T22:31:35.482Z,1016.92
2023-04-27T22:33:36.915Z,1016.92
2023-04-27T22:35:35.338Z,1016.92
2023-04-27T22:37:35.306Z,1016.91
2023-04-27T22:39:35.363Z,1016.91
2023-04-27T22:41:35.261Z,1016.88
2023-04-27T22:43:35.328Z,1016.91
2023-04-27T22:45:36.741Z,1016.91
2023-04-27T22:47:35.289Z,1016.92
2023-04-27T22:49:35.368Z,1016.96
2023-04-27T22:51:35.336Z,1016.97
2023-04-27T22:53:35.330Z,1016.97
2023-04-27T22:55:35.512Z,1016.97
2023-04-27T22:57:35.337Z,1016.96
2023-04-27T22:59:35.344Z,1016.94
2023-04-27T23:01:35.490Z,1016.90
2023-04-27T23:03:35.445Z,1016.90
2023-04-27T23:05:35.334Z,1016.88
2023-04-27T23:07:35.373Z,1016.83
2023-04-27T23:09:38.280Z,1016.90
2023-04-27T23:11:35.308Z,1016.90
2023-04-27T23:13:35.278Z,1016.90
2023-04-27T23:15:35.416Z,1016.90
2023-04-27T23:17:35.328Z,1016.93
2023-04-27T23:19:35.313Z,1016.92
2023-04-27T23:21:35.308Z,1016.89
2023-04-27T23:23:35.473Z,1016.89
2023-04-27T23:25:35.344Z,1016.88
2023-04-27T23:27:35.345Z,1016.86
2023-04-27T23:29:35.341Z,1016.93
2023-04-27T23:31:35.509Z,1016.88
2023-04-27T23:33:35.505Z,1016.88
2023-04-27T23:35:35.316Z,1016.81
2023-04-27T23:37:35.412Z,1016.80
2023-04-27T23:39:35.423Z,1016.85
2023-04-27T23:41:35.503Z,1016.85
2023-04-27T23:43:35.360Z,1016.83
2023-04-27T23:45:35.311Z,1016.78
2023-04-27T23:47:35.563Z,1016.78
2023-04-27T23:49:35.328Z,1016.77
2023-04-27T23:51:35.326Z,1016.77
2023-04-27T23:53:35.267Z,1016.77
2023-04-27T23:55:35.745Z,1016.77
2023-04-27T23:57:35.360Z,1016.72
2023-04-27T23:59:35.330Z,1016.66
